createdAt,value
2022-08-05T00:00:53.533Z,3.25
2022-08-05T00:03:19.941Z,3.28
2022-08-05T00:06:05.447Z,3.28
2022-08-05T00:08:35.574Z,3.22
2022-08-05T00:11:03.811Z,4.10
2022-08-05T00:13:38.829Z,3.05
2022-08-05T00:16:08.443Z,3.65
2022-08-05T00:18:35.146Z,3.40
2022-08-05T00:21:01.541Z,3.28
2022-08-05T00:23:44.406Z,3.40
2022-08-05T00:26:14.112Z,3.63
2022-08-05T00:28:42.847Z,3.15
2022-08-05T00:31:12.339Z,3.80
2022-08-05T00:34:55.794Z,4.40
2022-08-05T00:37:10.630Z,4.00
2022-08-05T00:39:13.649Z,3.80
2022-08-05T00:41:52.085Z,3.53
2022-08-05T00:44:23.222Z,3.42
2022-08-05T00:47:04.257Z,3.58
2022-08-05T00:49:44.370Z,4.00
2022-08-05T00:52:18.093Z,3.63
2022-08-05T00:54:54.559Z,3.55
2022-08-05T00:57:23.086Z,3.78
2022-08-05T00:59:52.250Z,5.88
2022-08-05T01:02:18.657Z,5.65
2022-08-05T01:04:45.111Z,7.47
2022-08-05T01:07:17.948Z,17.33
2022-08-05T01:09:44.790Z,28.17
2022-08-05T01:12:18.813Z,27.85
2022-08-05T01:14:50.289Z,26.85
2022-08-05T01:17:25.832Z,22.52
2022-08-05T01:20:00.913Z,19.63
2022-08-05T01:22:47.056Z,12.75
2022-08-05T01:25:22.799Z,10.77
2022-08-05T01:27:55.810Z,9.85
2022-08-05T01:30:34.597Z,10.02
2022-08-05T01:33:03.633Z,6.78
2022-08-05T01:35:51.680Z,6.53
2022-08-05T01:38:27.291Z,5.88
2022-08-05T01:40:58.162Z,5.65
2022-08-05T01:43:25.242Z,5.32
2022-08-05T01:45:56.292Z,5.10
2022-08-05T01:48:23.680Z,5.47
2022-08-05T01:50:51.490Z,5.05
2022-08-05T01:53:54.407Z,5.60
2022-08-05T01:56:09.312Z,5.15
2022-08-05T01:58:44.651Z,5.20
2022-08-05T02:01:17.730Z,4.82
2022-08-05T02:03:52.014Z,5.22
2022-08-05T02:06:37.728Z,4.40
2022-08-05T02:09:05.734Z,4.63
2022-08-05T02:11:41.992Z,4.80
2022-08-05T02:14:13.012Z,4.50
2022-08-05T02:16:52.310Z,4.55
2022-08-05T02:19:35.593Z,4.73
2022-08-05T02:22:25.849Z,4.65
2022-08-05T02:24:57.214Z,4.70
2022-08-05T02:27:30.198Z,4.40
2022-08-05T02:30:13.224Z,4.28
2022-08-05T02:32:46.368Z,4.70
2022-08-05T02:35:18.992Z,4.47
2022-08-05T02:37:53.802Z,5.20
2022-08-05T02:40:21.533Z,4.20
2022-08-05T02:42:52.630Z,5.18
2022-08-05T02:45:21.333Z,4.40
2022-08-05T02:48:06.999Z,4.80
2022-08-05T02:50:43.695Z,4.28
2022-08-05T02:53:11.978Z,5.32
2022-08-05T02:55:54.114Z,4.70
2022-08-05T02:58:27.368Z,4.75
2022-08-05T03:00:59.082Z,4.60
2022-08-05T03:03:26.671Z,4.28
2022-08-05T03:06:56.392Z,3.78
2022-08-05T03:08:47.680Z,4.07
2022-08-05T03:11:55.142Z,3.92
2022-08-05T03:14:04.978Z,3.60
2022-08-05T03:16:35.757Z,4.13
2022-08-05T03:19:06.490Z,4.07
2022-08-05T03:21:41.713Z,3.55
2022-08-05T03:24:17.309Z,3.40
2022-08-05T03:26:43.707Z,3.20
2022-08-05T03:29:17.251Z,3.53
2022-08-05T03:31:55.543Z,3.83
2022-08-05T03:34:24.361Z,3.58
2022-08-05T03:36:50.918Z,3.70
2022-08-05T03:39:20.280Z,3.05
2022-08-05T03:41:53.847Z,3.70
2022-08-05T03:44:22.893Z,3.17
2022-08-05T03:46:49.385Z,3.47
2022-08-05T03:49:15.818Z,3.45
2022-08-05T03:52:37.089Z,3.60
2022-08-05T03:55:00.288Z,3.60
